Time;durP1;ratioP1;P1;durP2;ratioP2;P2;SDS_P1;SDS_P2;PMS_P1;PMS_P2;Temp;Humidity;BMP_temperature;BMP_pressure;BME280_temperature;BME280_humidity;BME280_pressure;Samples;Min_cycle;Max_cycle;Signal;HPM_P1;HPM_P2
2023/01/06 00:00:12;;;;;;;10.23;7.43;;;10.90;99.90;;;;;;2613477;54;20253;-82
2023/01/06 00:02:38;;;;;;;12.63;8.80;;;11.00;99.90;;;;;;2612136;54;20174;-82
2023/01/06 00:05:04;;;;;;;17.43;8.30;;;10.90;99.90;;;;;;2612934;54;20948;-83
2023/01/06 00:07:30;;;;;;;9.67;7.40;;;10.90;99.90;;;;;;2612930;54;20270;-79
2023/01/06 00:09:55;;;;;;;12.17;7.40;;;10.90;99.90;;;;;;2613059;54;20960;-77
2023/01/06 00:12:21;;;;;;;9.50;6.43;;;10.90;99.90;;;;;;2613637;54;20162;-83
2023/01/06 00:14:47;;;;;;;10.07;5.47;;;10.90;99.90;;;;;;2614417;54;20159;-82
2023/01/06 00:17:13;;;;;;;9.03;5.00;;;10.90;99.90;;;;;;2614245;54;20181;-80
2023/01/06 00:19:39;;;;;;;10.83;5.83;;;10.90;99.90;;;;;;2614467;39;21317;-79
2023/01/06 00:22:05;;;;;;;6.93;4.90;;;10.90;99.90;;;;;;2613706;54;20435;-78
2023/01/06 00:24:33;;;;;;;6.77;4.50;;;10.90;99.90;;;;;;2613269;54;20415;-79
2023/01/06 00:27:00;;;;;;;8.53;5.33;;;10.90;99.90;;;;;;2613297;39;20569;-78
2023/01/06 00:29:26;;;;;;;10.63;5.57;;;10.80;99.90;;;;;;2613022;54;20425;-79
2023/01/06 00:31:52;;;;;;;5.93;3.87;;;10.80;99.90;;;;;;2613780;54;20499;-79
2023/01/06 00:34:17;;;;;;;8.17;4.90;;;10.80;99.90;;;;;;2613177;39;20783;-79
2023/01/06 00:36:43;;;;;;;5.90;4.20;;;10.90;99.90;;;;;;2613438;54;20608;-79
2023/01/06 00:39:12;;;;;;;9.17;4.47;;;10.80;99.90;;;;;;2612658;54;20675;-77
2023/01/06 00:44:23;;;;;;;7.23;4.80;;;10.90;99.90;;;;;;2612472;54;20410;-75
2023/01/06 00:46:48;;;;;;;11.13;3.97;;;10.80;99.90;;;;;;2612431;54;20411;-76
2023/01/06 00:49:14;;;;;;;4.50;3.40;;;10.80;99.90;;;;;;2613192;54;20251;-77
2023/01/06 00:51:40;;;;;;;3.80;2.40;;;10.80;99.90;;;;;;2613026;54;20154;-77
2023/01/06 00:54:08;;;;;;;9.43;3.93;;;10.90;99.90;;;;;;2613178;54;20181;-79
2023/01/06 00:56:37;;;;;;;6.30;4.50;;;10.90;99.90;;;;;;2613690;39;20222;-78
2023/01/06 00:59:04;;;;;;;10.60;3.60;;;10.80;99.90;;;;;;2613152;54;20518;-78
2023/01/06 01:01:29;;;;;;;5.20;2.73;;;10.90;99.90;;;;;;2612771;39;21213;-80
2023/01/06 01:03:55;;;;;;;11.67;3.53;;;10.90;99.90;;;;;;2612666;54;20411;-81
2023/01/06 01:06:22;;;;;;;9.40;3.33;;;10.90;99.90;;;;;;2612077;54;20155;-81
2023/01/06 01:08:55;;;;;;;4.63;2.60;;;10.90;99.90;;;;;;2611863;54;20416;-77
2023/01/06 01:14:07;;;;;;;5.80;3.03;;;11.00;99.90;;;;;;2612554;54;20417;-76
2023/01/06 01:16:32;;;;;;;6.27;2.53;;;10.80;99.90;;;;;;2612749;54;20511;-77
2023/01/06 01:18:59;;;;;;;3.90;2.20;;;10.80;99.90;;;;;;2610961;54;20415;-77
2023/01/06 01:21:25;;;;;;;11.43;2.30;;;10.80;99.90;;;;;;2612651;54;20171;-77
2023/01/06 01:23:51;;;;;;;9.20;2.93;;;10.80;99.90;;;;;;2612336;54;20416;-79
2023/01/06 01:26:16;;;;;;;5.80;2.50;;;10.80;99.90;;;;;;2612455;54;20455;-78
2023/01/06 01:28:43;;;;;;;12.83;3.10;;;10.80;99.90;;;;;;2613347;46;20441;-80
2023/01/06 01:31:09;;;;;;;7.70;2.90;;;10.80;99.90;;;;;;2612473;54;20166;-81
2023/01/06 01:33:36;;;;;;;4.50;2.57;;;10.80;99.90;;;;;;2611268;54;21345;-76
2023/01/06 01:36:07;;;;;;;4.33;2.07;;;10.80;99.90;;;;;;2610681;54;20539;-75
2023/01/06 01:38:33;;;;;;;5.13;2.10;;;10.70;99.90;;;;;;2613312;54;20418;-79
2023/01/06 01:40:58;;;;;;;6.20;2.13;;;10.70;99.90;;;;;;2613463;54;20510;-78
2023/01/06 01:43:24;;;;;;;3.50;2.37;;;10.70;99.90;;;;;;2614040;39;20869;-78
2023/01/06 01:45:54;;;;;;;3.73;2.50;;;10.70;99.90;;;;;;2613276;54;20251;-79
2023/01/06 01:48:30;;;;;;;3.63;2.17;;;10.70;99.90;;;;;;2613249;39;20885;-79
2023/01/06 01:50:59;;;;;;;5.00;2.20;;;10.70;99.90;;;;;;2612691;47;20423;-78
2023/01/06 01:53:29;;;;;;;8.10;2.57;;;10.80;99.90;;;;;;2613185;54;20427;-78
2023/01/06 01:55:58;;;;;;;4.30;2.20;;;10.70;99.90;;;;;;2613572;54;20419;-78
2023/01/06 01:58:44;;;;;;;3.63;2.00;;;10.70;99.90;;;;;;2613828;39;21038;-78
2023/01/06 02:01:11;;;;;;;14.10;2.63;;;10.70;99.90;;;;;;2612581;54;21434;-79
2023/01/06 02:03:39;;;;;;;11.60;3.37;;;10.70;99.90;;;;;;2611991;54;20455;-79
2023/01/06 02:06:11;;;;;;;4.07;3.07;;;10.70;99.90;;;;;;2612877;54;20419;-75
2023/01/06 02:08:44;;;;;;;4.57;2.07;;;10.80;99.90;;;;;;2612395;54;20392;-74
2023/01/06 02:11:10;;;;;;;8.13;2.53;;;10.80;99.90;;;;;;2611475;47;20423;-76
2023/01/06 02:13:39;;;;;;;6.30;2.30;;;10.80;99.90;;;;;;2612119;54;20450;-76
2023/01/06 02:16:32;;;;;;;4.20;2.47;;;10.80;99.90;;;;;;2612884;47;20412;-76
2023/01/06 02:19:39;;;;;;;3.40;1.60;;;10.80;99.90;;;;;;2613126;54;20416;-77
2023/01/06 02:22:26;;;;;;;4.10;2.60;;;10.80;99.90;;;;;;2614106;39;20845;-82
2023/01/06 02:25:29;;;;;;;3.70;1.57;;;10.80;99.90;;;;;;2613615;54;20440;-80
2023/01/06 02:28:13;;;;;;;3.57;1.80;;;10.80;99.90;;;;;;2612564;46;20431;-79
2023/01/06 02:31:16;;;;;;;4.07;2.10;;;10.80;99.90;;;;;;2612513;54;20428;-77
2023/01/06 02:33:57;;;;;;;5.00;2.30;;;10.80;99.90;;;;;;2612928;54;20538;-75
2023/01/06 02:36:43;;;;;;;4.23;1.90;;;10.90;99.90;;;;;;2613089;47;20967;-81
2023/01/06 02:39:30;;;;;;;4.33;1.83;;;10.90;99.90;;;;;;2613276;54;20435;-82
2023/01/06 02:42:21;;;;;;;4.07;2.00;;;10.90;99.90;;;;;;2613490;39;20784;-82
2023/01/06 02:45:03;;;;;;;3.20;1.83;;;10.90;99.90;;;;;;2612940;54;20434;-82
2023/01/06 02:47:33;;;;;;;7.97;2.37;;;10.80;99.90;;;;;;2613207;54;20399;-81
2023/01/06 02:50:23;;;;;;;4.70;2.07;;;10.80;99.90;;;;;;2612402;54;20435;-82
2023/01/06 02:53:03;;;;;;;4.60;2.37;;;10.90;99.90;;;;;;2613471;47;20445;-82
2023/01/06 02:55:45;;;;;;;3.17;2.10;;;10.80;99.90;;;;;;2611638;54;20966;-75
2023/01/06 02:58:32;;;;;;;6.47;2.20;;;10.80;99.90;;;;;;2612905;39;21109;-75
2023/01/06 03:01:07;;;;;;;3.77;2.70;;;10.80;99.90;;;;;;2612583;47;20415;-75
2023/01/06 03:03:36;;;;;;;2.77;2.00;;;10.80;99.90;;;;;;2610817;47;20434;-74
2023/01/06 03:06:08;;;;;;;3.93;2.73;;;10.80;99.90;;;;;;2612445;54;20404;-78
2023/01/06 03:08:35;;;;;;;6.27;2.10;;;10.80;99.90;;;;;;2613355;54;20422;-78
2023/01/06 03:11:02;;;;;;;4.80;2.47;;;10.80;99.90;;;;;;2612257;54;20440;-78
2023/01/06 03:13:48;;;;;;;4.17;2.10;;;10.80;99.90;;;;;;2611066;54;20486;-81
2023/01/06 03:16:15;;;;;;;5.40;2.43;;;10.80;99.90;;;;;;2613036;54;20411;-81
2023/01/06 03:18:43;;;;;;;3.60;2.07;;;10.80;99.90;;;;;;2611787;54;20412;-75
2023/01/06 03:21:13;;;;;;;7.53;3.40;;;10.80;99.90;;;;;;2611520;54;20424;-75
2023/01/06 03:23:40;;;;;;;3.07;2.20;;;10.80;99.90;;;;;;2612710;46;20415;-75
2023/01/06 03:26:06;;;;;;;4.17;2.13;;;10.80;99.90;;;;;;2612187;54;20416;-75
2023/01/06 03:28:32;;;;;;;5.60;2.53;;;10.80;99.90;;;;;;2613581;54;20503;-78
2023/01/06 03:31:10;;;;;;;3.63;2.20;;;10.70;99.90;;;;;;2611984;54;20419;-78
2023/01/06 03:33:55;;;;;;;5.30;3.37;;;10.70;99.90;;;;;;2611174;54;20702;-76
2023/01/06 03:36:36;;;;;;;3.87;2.20;;;10.70;99.90;;;;;;2612805;54;20438;-74
2023/01/06 03:39:08;;;;;;;6.20;2.80;;;10.80;99.90;;;;;;2611846;47;20423;-76
2023/01/06 03:45:07;;;;;;;5.60;2.20;;;10.90;99.90;;;;;;2614009;54;20455;-78
2023/01/06 03:48:23;;;;;;;5.00;2.30;;;10.80;99.90;;;;;;2612362;47;20442;-77
2023/01/06 03:51:05;;;;;;;10.00;2.70;;;10.80;99.90;;;;;;2612277;54;20436;-76
2023/01/06 03:53:49;;;;;;;3.63;1.60;;;10.80;99.90;;;;;;2611008;54;20455;-74
2023/01/06 03:56:20;;;;;;;8.50;1.93;;;10.80;99.90;;;;;;2613589;46;20510;-80
2023/01/06 03:58:52;;;;;;;6.40;2.50;;;10.80;99.90;;;;;;2611942;54;20431;-81
2023/01/06 04:01:19;;;;;;;4.00;2.73;;;10.80;99.90;;;;;;2612876;54;20526;-74
2023/01/06 04:03:46;;;;;;;5.90;2.60;;;10.80;99.90;;;;;;2612703;54;21538;-75
2023/01/06 04:06:12;;;;;;;3.83;2.23;;;10.80;99.90;;;;;;2612418;54;21340;-79
2023/01/06 04:08:38;;;;;;;6.17;2.57;;;10.70;99.90;;;;;;2612168;54;20467;-79
2023/01/06 04:11:03;;;;;;;3.83;2.53;;;10.80;99.90;;;;;;2612968;54;20466;-79
2023/01/06 04:13:29;;;;;;;4.60;2.23;;;10.80;99.90;;;;;;2612379;54;20165;-79
2023/01/06 04:15:55;;;;;;;5.80;2.70;;;10.80;99.90;;;;;;2611888;47;21137;-77
2023/01/06 04:18:20;;;;;;;3.90;2.40;;;10.80;99.90;;;;;;2611878;54;20159;-77
2023/01/06 04:20:46;;;;;;;3.90;2.50;;;10.90;99.90;;;;;;2611916;47;20194;-80
2023/01/06 04:23:12;;;;;;;3.53;2.50;;;10.90;99.90;;;;;;2612365;54;20246;-78
2023/01/06 04:25:41;;;;;;;3.70;2.90;;;10.90;99.90;;;;;;2612551;47;20429;-77
2023/01/06 04:28:06;;;;;;;8.50;2.87;;;10.90;99.90;;;;;;2612822;54;20174;-78
2023/01/06 04:30:32;;;;;;;4.00;2.77;;;10.90;99.90;;;;;;2613097;54;20427;-79
2023/01/06 04:32:58;;;;;;;3.60;2.57;;;10.80;99.90;;;;;;2610599;54;20186;-77
2023/01/06 04:35:23;;;;;;;5.20;2.43;;;10.90;99.90;;;;;;2613060;54;20313;-78
2023/01/06 04:37:49;;;;;;;5.43;2.50;;;10.90;99.90;;;;;;2612669;54;20186;-80
2023/01/06 04:40:14;;;;;;;4.67;1.83;;;10.90;99.90;;;;;;2612978;47;20935;-81
2023/01/06 04:45:24;;;;;;;3.97;2.30;;;11.00;99.90;;;;;;2613276;54;20175;-79
2023/01/06 04:47:50;;;;;;;6.83;2.77;;;10.90;99.90;;;;;;2613498;47;20453;-78
2023/01/06 04:50:16;;;;;;;5.00;2.70;;;10.90;99.90;;;;;;2612999;54;20163;-79
2023/01/06 04:52:41;;;;;;;3.57;2.10;;;10.90;99.90;;;;;;2612603;54;20163;-74
2023/01/06 04:55:07;;;;;;;4.00;2.13;;;10.90;99.90;;;;;;2610877;54;20435;-74
2023/01/06 04:57:33;;;;;;;4.63;2.13;;;10.90;99.90;;;;;;2611774;54;20170;-74
2023/01/06 04:59:58;;;;;;;4.43;2.40;;;10.90;99.90;;;;;;2612074;54;20995;-76
2023/01/06 05:02:24;;;;;;;5.30;3.00;;;10.90;99.90;;;;;;2611163;54;20170;-74
2023/01/06 05:04:50;;;;;;;3.80;2.90;;;11.00;99.90;;;;;;2611804;47;20191;-74
2023/01/06 05:07:15;;;;;;;4.50;2.10;;;10.90;99.90;;;;;;2610746;54;20179;-75
2023/01/06 05:09:41;;;;;;;5.90;2.30;;;10.90;99.90;;;;;;2612928;47;20688;-76
2023/01/06 05:12:07;;;;;;;7.07;2.57;;;11.00;99.90;;;;;;2612661;54;20159;-77
2023/01/06 05:14:32;;;;;;;5.70;2.63;;;10.90;99.90;;;;;;2612248;54;20182;-76
2023/01/06 05:16:58;;;;;;;4.83;2.40;;;10.90;99.90;;;;;;2612910;39;20576;-75
2023/01/06 05:19:24;;;;;;;2.47;2.00;;;10.90;99.90;;;;;;2613497;54;20161;-76
2023/01/06 05:21:49;;;;;;;2.73;1.93;;;10.90;99.90;;;;;;2614152;54;20736;-80
2023/01/06 05:24:15;;;;;;;4.80;2.40;;;11.00;99.90;;;;;;2613103;54;21028;-80
2023/01/06 05:26:40;;;;;;;5.70;2.40;;;10.90;99.90;;;;;;2612994;54;20201;-80
2023/01/06 05:29:06;;;;;;;3.17;2.20;;;11.00;99.90;;;;;;2613723;46;20675;-79
2023/01/06 05:31:32;;;;;;;3.87;2.33;;;10.90;99.90;;;;;;2613114;54;20159;-78
2023/01/06 05:33:57;;;;;;;7.10;4.00;;;11.00;99.90;;;;;;2613664;54;20198;-79
2023/01/06 05:36:23;;;;;;;3.57;2.07;;;10.90;99.90;;;;;;2614115;54;20151;-78
2023/01/06 05:38:53;;;;;;;5.10;2.40;;;11.00;99.90;;;;;;2613699;54;20246;-78
2023/01/06 05:41:19;;;;;;;3.60;2.57;;;11.00;99.90;;;;;;2613163;47;20197;-81
2023/01/06 05:43:44;;;;;;;4.63;2.53;;;11.00;99.90;;;;;;2614033;39;21118;-81
2023/01/06 05:46:11;;;;;;;4.90;2.53;;;11.00;99.90;;;;;;2613035;54;20427;-74
2023/01/06 05:48:37;;;;;;;2.93;2.00;;;10.90;99.90;;;;;;2612374;54;20155;-75
2023/01/06 05:51:08;;;;;;;2.63;2.13;;;11.00;99.90;;;;;;2612201;54;20519;-78
2023/01/06 05:53:36;;;;;;;6.40;2.23;;;11.00;99.90;;;;;;2613368;54;20589;-78
2023/01/06 05:56:02;;;;;;;5.73;2.30;;;11.00;99.90;;;;;;2613720;46;20449;-80
2023/01/06 05:58:28;;;;;;;3.27;2.30;;;11.10;99.90;;;;;;2612852;54;20423;-83
2023/01/06 06:00:54;;;;;;;4.23;2.70;;;11.00;99.90;;;;;;2611639;54;20430;-76
2023/01/06 06:03:20;;;;;;;4.13;2.50;;;11.10;99.90;;;;;;2611574;47;20972;-75
2023/01/06 06:05:46;;;;;;;3.37;2.60;;;11.10;99.90;;;;;;2612028;54;20163;-77
2023/01/06 06:08:11;;;;;;;3.40;2.10;;;11.00;99.90;;;;;;2612898;54;20442;-78
2023/01/06 06:10:37;;;;;;;3.07;2.00;;;11.10;99.90;;;;;;2613432;54;20158;-78
2023/01/06 06:13:03;;;;;;;3.47;2.23;;;11.10;99.90;;;;;;2612486;54;20167;-77
2023/01/06 06:15:28;;;;;;;2.67;2.17;;;11.10;99.90;;;;;;2612142;54;20176;-78
2023/01/06 06:17:54;;;;;;;4.23;2.50;;;11.00;99.90;;;;;;2613114;54;20166;-77
2023/01/06 06:20:20;;;;;;;4.53;2.17;;;11.10;99.90;;;;;;2611684;47;20205;-79
2023/01/06 06:22:45;;;;;;;3.33;2.43;;;11.10;99.90;;;;;;2612139;54;21190;-77
2023/01/06 06:25:11;;;;;;;3.73;2.37;;;11.10;99.90;;;;;;2613237;54;20158;-77
2023/01/06 06:27:37;;;;;;;9.90;2.60;;;11.00;99.90;;;;;;2612672;54;20154;-78
2023/01/06 06:30:05;;;;;;;2.60;1.87;;;11.00;99.90;;;;;;2614084;47;20171;-77
2023/01/06 06:32:30;;;;;;;6.50;2.60;;;11.00;99.90;;;;;;2612696;54;20428;-75
2023/01/06 06:34:56;;;;;;;3.37;2.57;;;11.00;99.90;;;;;;2613533;39;21327;-75
2023/01/06 06:37:22;;;;;;;2.70;2.30;;;11.00;99.90;;;;;;2612805;54;20221;-75
2023/01/06 06:39:47;;;;;;;3.20;1.97;;;11.00;99.90;;;;;;2613371;54;20158;-76
2023/01/06 06:42:13;;;;;;;6.83;2.77;;;11.00;99.90;;;;;;2614215;54;20282;-82
2023/01/06 06:44:38;;;;;;;3.30;2.30;;;10.90;99.90;;;;;;2612396;54;20201;-82
2023/01/06 06:47:04;;;;;;;3.30;2.20;;;10.90;99.90;;;;;;2612826;54;20159;-76
2023/01/06 06:49:30;;;;;;;5.03;2.00;;;11.00;99.90;;;;;;2613431;54;20147;-76
2023/01/06 06:51:55;;;;;;;2.57;1.93;;;11.00;99.90;;;;;;2612114;54;20211;-82
2023/01/06 06:54:21;;;;;;;3.50;1.97;;;10.90;99.90;;;;;;2613046;54;20287;-80
2023/01/06 06:56:47;;;;;;;2.80;2.30;;;10.90;99.90;;;;;;2612552;54;20181;-77
2023/01/06 06:59:12;;;;;;;3.93;2.50;;;10.90;99.90;;;;;;2613016;54;20159;-79
2023/01/06 07:01:38;;;;;;;3.87;1.80;;;10.90;99.90;;;;;;2611876;54;20659;-79
2023/01/06 07:04:04;;;;;;;3.87;2.00;;;10.90;99.90;;;;;;2612346;54;20159;-78
2023/01/06 07:06:30;;;;;;;2.20;1.90;;;10.90;99.90;;;;;;2612364;47;20159;-78
2023/01/06 07:08:56;;;;;;;2.57;1.90;;;10.90;99.90;;;;;;2611704;54;20167;-78
2023/01/06 07:11:22;;;;;;;4.50;1.70;;;10.90;99.90;;;;;;2613832;31;21163;-81
2023/01/06 07:13:48;;;;;;;3.50;1.70;;;11.00;99.90;;;;;;2612908;47;20439;-82
2023/01/06 07:16:13;;;;;;;4.77;2.20;;;10.90;99.90;;;;;;2613443;47;20435;-75
2023/01/06 07:18:39;;;;;;;5.30;1.93;;;10.80;99.90;;;;;;2611585;54;20218;-75
2023/01/06 07:21:05;;;;;;;2.23;1.80;;;10.80;99.90;;;;;;2612104;54;20286;-79
2023/01/06 07:23:34;;;;;;;1.90;1.50;;;10.70;99.90;;;;;;2612495;54;20209;-79
2023/01/06 07:26:01;;;;;;;5.07;1.70;;;10.70;99.90;;;;;;2612324;54;20411;-80
2023/01/06 07:28:28;;;;;;;4.50;2.10;;;10.80;99.90;;;;;;2614631;54;20526;-80
2023/01/06 07:30:55;;;;;;;5.93;2.40;;;10.80;99.90;;;;;;2612905;54;20555;-82
2023/01/06 07:33:22;;;;;;;2.70;1.60;;;10.80;99.90;;;;;;2611951;39;21838;-82
2023/01/06 07:35:52;;;;;;;4.17;1.83;;;10.80;99.90;;;;;;2612971;54;20479;-75
2023/01/06 07:38:18;;;;;;;4.30;2.03;;;10.90;99.90;;;;;;2611722;39;20833;-74
2023/01/06 07:40:44;;;;;;;2.60;1.77;;;10.90;99.90;;;;;;2612897;54;20559;-82
2023/01/06 07:43:10;;;;;;;4.17;1.87;;;10.90;99.90;;;;;;2613546;54;20250;-82
2023/01/06 07:45:36;;;;;;;3.17;2.20;;;10.90;99.90;;;;;;2611516;39;20432;-80
2023/01/06 07:48:03;;;;;;;2.40;1.80;;;10.90;99.90;;;;;;2613491;54;20423;-82
2023/01/06 07:50:30;;;;;;;3.80;2.00;;;11.00;99.90;;;;;;2611917;54;20428;-83
2023/01/06 07:52:57;;;;;;;1.87;1.60;;;11.00;99.90;;;;;;2612616;54;20419;-78
2023/01/06 07:55:23;;;;;;;3.23;1.67;;;11.00;99.90;;;;;;2612143;54;20427;-77
2023/01/06 07:57:49;;;;;;;3.30;1.97;;;11.00;99.90;;;;;;2610580;51;20532;-79
2023/01/06 08:00:14;;;;;;;2.30;2.10;;;11.10;99.90;;;;;;2613237;54;20485;-79
2023/01/06 08:02:40;;;;;;;2.33;1.77;;;11.10;99.90;;;;;;2613259;47;20171;-78
2023/01/06 08:05:06;;;;;;;2.07;1.53;;;11.00;99.90;;;;;;2612685;54;20491;-78
2023/01/06 08:07:32;;;;;;;2.00;1.70;;;11.10;99.90;;;;;;2613959;47;20177;-80
2023/01/06 08:09:57;;;;;;;2.73;1.70;;;11.10;99.90;;;;;;2613316;47;20417;-81
2023/01/06 08:12:23;;;;;;;5.87;2.33;;;11.10;99.90;;;;;;2605323;54;20166;-77
2023/01/06 08:14:49;;;;;;;2.07;1.83;;;11.10;99.90;;;;;;2610072;54;20166;-76
2023/01/06 08:17:14;;;;;;;3.40;2.53;;;11.10;99.90;;;;;;2612810;54;20155;-77
2023/01/06 08:19:40;;;;;;;6.23;2.10;;;11.10;99.90;;;;;;2611401;54;20310;-78
2023/01/06 08:22:06;;;;;;;3.50;2.00;;;11.10;99.90;;;;;;2611699;39;20740;-78
2023/01/06 08:24:31;;;;;;;2.90;1.80;;;11.20;99.90;;;;;;2612999;54;20710;-78
2023/01/06 08:26:57;;;;;;;5.93;2.10;;;11.20;99.90;;;;;;2611783;54;20509;-76
2023/01/06 08:29:24;;;;;;;3.00;2.07;;;11.20;99.90;;;;;;2612777;39;21113;-76
2023/01/06 08:31:50;;;;;;;5.47;2.30;;;11.20;99.90;;;;;;2613595;54;20155;-78
2023/01/06 08:34:16;;;;;;;2.97;2.10;;;11.20;99.90;;;;;;2613025;39;20827;-78
2023/01/06 08:36:43;;;;;;;2.73;1.90;;;11.20;99.90;;;;;;2613389;54;20426;-77
2023/01/06 08:39:10;;;;;;;2.27;1.90;;;11.10;99.90;;;;;;2612321;54;20438;-75
2023/01/06 08:41:36;;;;;;;2.40;1.97;;;11.10;99.90;;;;;;2613671;54;20399;-79
2023/01/06 08:44:02;;;;;;;3.40;2.47;;;11.00;99.90;;;;;;2611956;47;20974;-78
2023/01/06 08:46:27;;;;;;;3.63;1.80;;;10.80;99.90;;;;;;2612733;46;20186;-80
2023/01/06 08:48:55;;;;;;;3.57;2.33;;;10.80;99.90;;;;;;2613853;54;20205;-79
2023/01/06 08:51:22;;;;;;;3.50;2.13;;;10.80;99.90;;;;;;2612045;47;20423;-78
2023/01/06 08:53:48;;;;;;;4.10;1.60;;;10.80;99.90;;;;;;2611946;47;20427;-79
2023/01/06 08:56:20;;;;;;;2.97;1.70;;;10.90;99.90;;;;;;2611819;54;20454;-78
2023/01/06 08:58:54;;;;;;;2.63;1.80;;;11.00;99.90;;;;;;2613051;54;20534;-78
2023/01/06 09:01:24;;;;;;;2.50;2.00;;;11.00;99.90;;;;;;2613476;39;21252;-79
2023/01/06 09:03:49;;;;;;;2.30;1.80;;;11.00;99.90;;;;;;2613216;54;20423;-78
2023/01/06 09:06:15;;;;;;;2.40;1.90;;;11.00;99.90;;;;;;2612634;54;20440;-75
2023/01/06 09:08:41;;;;;;;3.60;1.97;;;10.90;99.90;;;;;;2612129;47;21280;-75
2023/01/06 09:11:09;;;;;;;3.40;2.03;;;10.90;99.90;;;;;;2611559;47;20423;-79
2023/01/06 09:13:35;;;;;;;2.50;1.70;;;11.00;99.90;;;;;;2611712;54;20207;-79
2023/01/06 09:16:12;;;;;;;2.20;1.50;;;11.00;99.90;;;;;;2612907;47;20430;-82
2023/01/06 09:18:37;;;;;;;2.30;1.80;;;11.00;99.90;;;;;;2613221;54;20458;-82
2023/01/06 09:21:04;;;;;;;2.70;1.60;;;11.10;99.90;;;;;;2612814;54;20412;-76
2023/01/06 09:23:31;;;;;;;2.73;1.90;;;11.10;99.90;;;;;;2610572;54;20406;-76
2023/01/06 09:25:57;;;;;;;4.90;1.70;;;10.90;99.90;;;;;;2612206;54;20423;-76
2023/01/06 09:28:23;;;;;;;2.67;1.60;;;11.00;99.90;;;;;;2612821;54;20414;-77
2023/01/06 09:30:49;;;;;;;3.07;1.70;;;11.00;99.90;;;;;;2612319;54;20423;-81
2023/01/06 09:33:16;;;;;;;2.20;1.23;;;11.10;99.90;;;;;;2613522;54;20542;-80
2023/01/06 09:35:45;;;;;;;2.30;1.63;;;11.10;99.90;;;;;;2612907;54;21046;-79
2023/01/06 09:38:12;;;;;;;2.40;1.90;;;11.10;99.90;;;;;;2613254;54;20495;-79
2023/01/06 09:40:59;;;;;;;2.97;1.60;;;11.00;99.90;;;;;;2613045;54;20438;-81
2023/01/06 09:43:49;;;;;;;2.77;1.53;;;10.70;99.90;;;;;;2612724;54;20412;-77
2023/01/06 09:46:29;;;;;;;2.33;1.53;;;10.60;99.90;;;;;;2612992;54;20388;-83
2023/01/06 09:49:08;;;;;;;2.33;1.30;;;10.70;99.90;;;;;;2612980;39;20834;-82
2023/01/06 09:51:35;;;;;;;2.93;2.03;;;10.80;99.90;;;;;;2613361;54;20415;-79
2023/01/06 09:54:33;;;;;;;3.70;1.80;;;10.80;99.90;;;;;;2612218;54;20510;-79
2023/01/06 09:57:05;;;;;;;2.37;1.40;;;10.60;99.90;;;;;;2613338;54;20531;-78
2023/01/06 09:59:52;;;;;;;2.83;1.83;;;10.50;99.90;;;;;;2613624;54;20420;-76
2023/01/06 10:02:35;;;;;;;5.70;1.77;;;10.30;99.90;;;;;;2613383;54;20552;-76
2023/01/06 10:05:17;;;;;;;2.53;1.90;;;10.40;99.90;;;;;;2613651;54;20427;-75
2023/01/06 10:07:58;;;;;;;3.17;1.57;;;10.40;99.90;;;;;;2613618;54;20446;-74
2023/01/06 10:11:00;;;;;;;2.10;1.50;;;10.50;99.90;;;;;;2611210;54;20439;-77
2023/01/06 10:13:57;;;;;;;5.50;1.97;;;10.60;99.90;;;;;;2614453;54;20438;-83
2023/01/06 10:16:59;;;;;;;3.20;2.07;;;10.70;99.90;;;;;;2613592;54;20506;-75
2023/01/06 10:19:52;;;;;;;2.70;2.30;;;10.90;99.90;;;;;;2613071;46;20458;-75
2023/01/06 10:22:34;;;;;;;3.10;2.40;;;10.80;99.90;;;;;;2613398;54;20424;-76
2023/01/06 10:25:17;;;;;;;4.33;1.80;;;10.70;99.90;;;;;;2613218;54;20415;-77
2023/01/06 10:27:50;;;;;;;2.73;1.50;;;10.50;99.90;;;;;;2613241;54;20446;-78
2023/01/06 10:30:50;;;;;;;3.20;2.40;;;10.60;99.90;;;;;;2613593;54;21429;-78
2023/01/06 10:33:24;;;;;;;5.20;2.60;;;10.70;99.90;;;;;;2612295;54;20490;-75
2023/01/06 10:35:51;;;;;;;8.20;3.40;;;10.70;99.90;;;;;;2613527;54;20415;-76
2023/01/06 10:38:18;;;;;;;4.07;3.00;;;10.80;99.90;;;;;;2612701;46;20455;-78
2023/01/06 10:40:43;;;;;;;4.40;3.40;;;10.80;99.90;;;;;;2613538;54;20486;-79
2023/01/06 10:43:12;;;;;;;3.40;2.37;;;10.80;99.90;;;;;;2613549;54;20973;-80
2023/01/06 10:45:43;;;;;;;10.20;3.27;;;10.80;99.90;;;;;;2613431;54;20165;-78
2023/01/06 10:48:19;;;;;;;5.17;3.40;;;10.90;99.90;;;;;;2613803;39;20763;-78
2023/01/06 10:50:45;;;;;;;4.10;2.63;;;11.00;99.90;;;;;;2612427;54;20418;-80
2023/01/06 10:53:12;;;;;;;4.60;3.43;;;11.00;99.90;;;;;;2614201;54;20458;-79
2023/01/06 10:55:57;;;;;;;3.50;2.90;;;11.00;99.90;;;;;;2612755;54;20416;-78
2023/01/06 10:58:41;;;;;;;4.27;2.90;;;11.10;99.90;;;;;;2611832;54;20412;-79
2023/01/06 11:01:21;;;;;;;3.40;2.77;;;11.20;99.90;;;;;;2612442;54;20427;-79
2023/01/06 11:04:12;;;;;;;3.77;3.00;;;11.30;99.90;;;;;;2612146;54;20423;-78
2023/01/06 11:07:00;;;;;;;5.40;4.07;;;11.60;99.90;;;;;;2612870;54;20407;-76
2023/01/06 11:09:32;;;;;;;4.40;4.00;;;11.60;99.90;;;;;;2613264;54;20408;-77
2023/01/06 11:12:08;;;;;;;4.10;3.50;;;11.50;99.90;;;;;;2613016;54;20458;-75
2023/01/06 11:14:34;;;;;;;4.47;4.03;;;11.50;99.90;;;;;;2612234;54;21031;-75
2023/01/06 11:17:05;;;;;;;3.77;3.37;;;11.60;99.90;;;;;;2611879;54;20427;-79
2023/01/06 11:19:40;;;;;;;4.30;3.90;;;11.70;99.90;;;;;;2612568;54;20946;-79
2023/01/06 11:22:25;;;;;;;4.90;4.43;;;11.90;99.90;;;;;;2612807;47;20449;-78
2023/01/06 11:24:53;;;;;;;4.07;3.17;;;11.70;99.90;;;;;;2612839;39;21362;-78
2023/01/06 11:27:18;;;;;;;3.77;3.13;;;11.60;99.90;;;;;;2612364;47;20419;-75
2023/01/06 11:29:44;;;;;;;3.77;3.07;;;11.70;99.90;;;;;;2612245;54;20946;-75
2023/01/06 11:32:22;;;;;;;4.87;3.30;;;11.70;99.90;;;;;;2612428;47;20162;-77
2023/01/06 11:34:54;;;;;;;5.47;3.57;;;11.70;99.90;;;;;;2612604;54;20194;-78
2023/01/06 11:37:37;;;;;;;5.80;3.40;;;11.70;99.90;;;;;;2612637;54;20424;-78
2023/01/06 11:40:12;;;;;;;4.50;3.60;;;11.90;99.90;;;;;;2612797;54;21007;-79
2023/01/06 11:42:38;;;;;;;4.47;2.97;;;11.90;99.90;;;;;;2613471;54;20407;-80
2023/01/06 11:45:04;;;;;;;5.30;3.57;;;11.80;99.90;;;;;;2611382;54;20506;-81
2023/01/06 11:47:30;;;;;;;5.20;3.63;;;11.70;99.90;;;;;;2612845;54;20166;-77
2023/01/06 11:49:59;;;;;;;4.37;3.40;;;11.70;99.90;;;;;;2612247;46;20527;-77
2023/01/06 11:52:32;;;;;;;3.97;3.30;;;11.80;99.90;;;;;;2610363;54;21084;-75
2023/01/06 11:55:03;;;;;;;3.60;2.63;;;12.00;99.90;;;;;;2610397;39;21064;-75
2023/01/06 11:57:58;;;;;;;5.23;2.97;;;12.00;99.90;;;;;;2612091;54;20400;-76
2023/01/06 12:00:33;;;;;;;3.70;3.17;;;12.00;99.90;;;;;;2613089;39;21283;-74
2023/01/06 12:03:24;;;;;;;4.23;3.83;;;11.90;99.90;;;;;;2613642;47;20502;-82
2023/01/06 12:06:10;;;;;;;3.67;2.90;;;12.00;99.90;;;;;;2614193;54;20447;-79
2023/01/06 12:08:44;;;;;;;3.70;3.17;;;12.00;99.90;;;;;;2613964;39;20482;-79
2023/01/06 12:11:20;;;;;;;5.20;3.50;;;12.00;99.90;;;;;;2613267;54;20412;-77
2023/01/06 12:13:46;;;;;;;4.10;3.70;;;12.00;99.90;;;;;;2612735;54;20396;-77
2023/01/06 12:16:21;;;;;;;5.93;4.03;;;12.10;99.90;;;;;;2612859;54;21058;-78
2023/01/06 12:18:48;;;;;;;8.67;4.50;;;12.10;99.90;;;;;;2614208;39;20578;-77
2023/01/06 12:21:23;;;;;;;7.03;4.47;;;12.10;99.90;;;;;;2613228;54;20466;-81
2023/01/06 12:23:51;;;;;;;4.70;3.90;;;12.20;99.90;;;;;;2614273;47;20438;-81
2023/01/06 12:26:22;;;;;;;4.10;3.70;;;12.40;99.90;;;;;;2613256;39;20962;-76
2023/01/06 12:28:50;;;;;;;3.93;3.30;;;13.20;99.90;;;;;;2611368;47;20539;-77
2023/01/06 12:31:35;;;;;;;6.40;4.27;;;12.80;99.90;;;;;;2613444;54;20442;-76
2023/01/06 12:34:32;;;;;;;4.47;4.07;;;12.50;99.90;;;;;;2612545;39;20915;-77
2023/01/06 12:37:11;;;;;;;6.70;3.40;;;12.50;99.90;;;;;;2611550;54;20573;-77
2023/01/06 12:39:46;;;;;;;4.80;3.60;;;12.50;99.90;;;;;;2612953;54;20411;-77
2023/01/06 12:42:25;;;;;;;4.70;3.80;;;12.50;99.90;;;;;;2612618;54;21068;-75
2023/01/06 12:44:56;;;;;;;4.93;3.77;;;12.50;99.90;;;;;;2612578;39;20930;-76
2023/01/06 12:47:40;;;;;;;10.90;4.23;;;12.50;99.90;;;;;;2613292;39;20804;-76
2023/01/06 12:50:18;;;;;;;4.07;3.70;;;12.50;99.90;;;;;;2611267;39;20843;-77
2023/01/06 12:52:51;;;;;;;5.20;3.97;;;12.50;99.90;;;;;;2613465;47;20418;-76
2023/01/06 12:55:26;;;;;;;8.90;3.73;;;12.70;99.90;;;;;;2612310;54;20437;-77
2023/01/06 12:58:11;;;;;;;4.30;3.70;;;12.60;99.90;;;;;;2611984;39;21512;-82
2023/01/06 13:00:53;;;;;;;4.20;3.80;;;12.70;99.90;;;;;;2613256;54;20416;-82
2023/01/06 13:03:30;;;;;;;5.73;4.50;;;12.60;99.90;;;;;;2611985;54;20439;-78
2023/01/06 13:06:18;;;;;;;5.53;4.17;;;12.50;99.90;;;;;;2612718;54;20422;-82
2023/01/06 13:09:14;;;;;;;4.40;4.00;;;12.50;99.90;;;;;;2613667;47;20416;-83
2023/01/06 13:11:54;;;;;;;4.27;3.87;;;12.60;99.90;;;;;;2614243;54;20407;-77
2023/01/06 13:14:46;;;;;;;5.70;3.57;;;12.50;99.90;;;;;;2612682;47;20425;-76
2023/01/06 13:17:23;;;;;;;4.30;3.70;;;12.60;99.90;;;;;;2610735;47;20407;-79